createdAt,value
2019-04-13T00:03:41.369Z,15.43
2019-04-13T00:08:46.391Z,15.60
2019-04-13T00:13:51.641Z,15.53
2019-04-13T00:18:56.865Z,15.73
2019-04-13T00:24:02.201Z,15.00
2019-04-13T00:29:07.245Z,16.20
2019-04-13T00:34:12.319Z,15.93
2019-04-13T00:39:17.170Z,15.83
2019-04-13T00:44:22.089Z,15.20
2019-04-13T00:49:26.955Z,15.40
2019-04-13T00:54:32.050Z,15.30
2019-04-13T00:59:37.109Z,16.37
2019-04-13T01:04:52.983Z,16.57
2019-04-13T01:09:49.467Z,16.60
2019-04-13T01:14:54.641Z,15.07
2019-04-13T01:19:59.808Z,16.00
2019-04-13T01:25:05.791Z,15.30
2019-04-13T01:30:11.145Z,16.80
2019-04-13T01:35:16.011Z,16.20
2019-04-13T01:40:21.655Z,15.90
2019-04-13T01:45:27.049Z,17.07
2019-04-13T01:50:31.787Z,17.10
2019-04-13T01:55:35.369Z,16.07
2019-04-13T02:00:51.040Z,15.33
2019-04-13T02:06:00.955Z,16.23
2019-04-13T02:11:14.497Z,16.90
2019-04-13T02:16:18.729Z,16.97
2019-04-13T02:21:22.827Z,17.60
2019-04-13T02:26:26.989Z,18.20
2019-04-13T02:31:31.198Z,17.20
2019-04-13T02:36:35.244Z,17.53
2019-04-13T02:41:39.544Z,17.80
2019-04-13T02:46:44.157Z,17.70
2019-04-13T02:51:48.544Z,17.67
2019-04-13T02:56:52.585Z,18.30
2019-04-13T03:01:57.565Z,18.10
2019-04-13T03:07:01.646Z,17.00
2019-04-13T03:12:06.217Z,18.37
2019-04-13T03:17:40.265Z,17.27
2019-04-13T03:22:45.309Z,18.70
2019-04-13T03:27:51.473Z,18.43
2019-04-13T03:32:56.854Z,17.33
2019-04-13T03:38:02.231Z,19.10
2019-04-13T03:43:07.343Z,17.87
2019-04-13T03:48:12.273Z,17.50
2019-04-13T03:53:17.577Z,16.80
2019-04-13T03:58:22.205Z,18.20
2019-04-13T04:03:34.226Z,17.40
2019-04-13T04:08:46.823Z,17.13
2019-04-13T04:13:52.520Z,17.23
2019-04-13T04:18:57.814Z,17.00
2019-04-13T04:24:02.017Z,16.53
2019-04-13T04:29:10.734Z,16.40
2019-04-13T04:34:18.015Z,17.00
2019-04-13T04:39:28.161Z,17.90
2019-04-13T04:44:33.326Z,17.77
2019-04-13T04:49:38.455Z,17.37
2019-04-13T04:54:51.357Z,17.67
2019-04-13T04:59:58.051Z,16.53
2019-04-13T05:05:03.722Z,17.07
2019-04-13T05:10:17.099Z,16.87
2019-04-13T05:15:23.526Z,18.40
2019-04-13T05:20:29.490Z,17.33
2019-04-13T05:25:35.220Z,15.87
2019-04-13T05:30:41.323Z,17.33
2019-04-13T05:35:46.004Z,17.57
2019-04-13T05:40:50.973Z,17.30
2019-04-13T05:45:58.168Z,17.00
2019-04-13T05:51:04.641Z,16.50
2019-04-13T05:56:10.997Z,18.20
2019-04-13T06:01:15.418Z,17.87
2019-04-13T06:06:23.473Z,17.50
2019-04-13T06:11:27.980Z,17.20
2019-04-13T06:16:32.147Z,17.53
2019-04-13T06:21:37.350Z,16.57
2019-04-13T06:26:44.389Z,16.60
2019-04-13T06:31:58.946Z,18.10
2019-04-13T06:37:12.016Z,17.33
2019-04-13T06:42:11.497Z,19.17
2019-04-13T06:47:17.559Z,18.30
2019-04-13T06:52:24.759Z,17.00
2019-04-13T06:57:29.872Z,18.20
2019-04-13T07:02:35.187Z,18.40
2019-04-13T07:08:06.269Z,16.97
2019-04-13T07:13:25.931Z,17.90
2019-04-13T07:18:38.257Z,17.97
2019-04-13T07:23:45.700Z,17.20
2019-04-13T07:28:51.903Z,17.30
2019-04-13T07:33:58.339Z,18.00
2019-04-13T07:39:04.481Z,18.53
2019-04-13T07:44:13.386Z,17.83
2019-04-13T07:49:33.075Z,19.20
2019-04-13T07:54:38.473Z,17.23
2019-04-13T07:59:45.023Z,18.60
2019-04-13T08:04:50.690Z,23.97
2019-04-13T08:09:55.975Z,18.80
2019-04-13T08:15:01.902Z,18.37
2019-04-13T08:20:29.437Z,17.67
2019-04-13T08:25:44.746Z,17.90
2019-04-13T08:30:49.996Z,17.73
2019-04-13T08:35:54.508Z,18.07
2019-04-13T08:41:11.007Z,17.60
2019-04-13T08:46:06.236Z,23.17
2019-04-13T08:51:10.791Z,18.57
2019-04-13T08:56:19.281Z,16.00
2019-04-13T09:01:24.962Z,18.20
2019-04-13T09:06:28.727Z,17.70
2019-04-13T09:11:38.611Z,17.63
2019-04-13T09:16:45.096Z,18.20
2019-04-13T09:21:57.821Z,18.73
2019-04-13T09:27:07.203Z,18.07
2019-04-13T09:32:19.197Z,18.30
2019-04-13T09:37:32.625Z,19.30
2019-04-13T09:42:41.450Z,18.77
2019-04-13T09:47:53.285Z,17.40
2019-04-13T09:52:59.259Z,16.47
2019-04-13T09:58:18.590Z,16.03
2019-04-13T10:03:24.713Z,16.47
2019-04-13T10:08:30.698Z,15.20
2019-04-13T10:14:03.134Z,17.30
2019-04-13T10:19:08.940Z,15.93
2019-04-13T10:24:14.833Z,15.70
2019-04-13T10:29:22.879Z,15.50
2019-04-13T10:34:28.236Z,16.17
2019-04-13T10:39:34.570Z,16.60
2019-04-13T10:44:49.397Z,15.87
2019-04-13T10:50:00.308Z,15.47
2019-04-13T10:55:05.579Z,16.00
2019-04-13T11:00:12.621Z,15.17
2019-04-13T11:05:17.539Z,15.20
2019-04-13T11:10:26.644Z,15.10
2019-04-13T11:15:31.974Z,14.97
2019-04-13T11:20:37.855Z,14.30
2019-04-13T11:25:43.233Z,15.00
2019-04-13T11:30:48.908Z,14.37
2019-04-13T11:36:03.398Z,13.40
2019-04-13T11:41:20.775Z,14.40
2019-04-13T11:46:44.335Z,14.57
2019-04-13T11:51:50.302Z,14.30
2019-04-13T11:56:56.419Z,14.23
2019-04-13T12:02:40.753Z,14.57
2019-04-13T12:08:09.371Z,14.57
2019-04-13T12:13:31.960Z,16.67
2019-04-13T12:18:55.343Z,15.60
2019-04-13T12:24:08.805Z,15.20
2019-04-13T12:29:14.535Z,15.10
2019-04-13T12:34:33.050Z,15.43
2019-04-13T12:39:43.012Z,14.27
2019-04-13T12:44:50.357Z,13.37
2019-04-13T12:49:56.279Z,15.23
2019-04-13T12:55:05.734Z,13.20
2019-04-13T13:00:20.561Z,13.73
2019-04-13T13:05:32.674Z,14.40
2019-04-13T13:10:37.921Z,13.90
2019-04-13T13:15:42.767Z,14.07
2019-04-13T13:20:46.806Z,13.60
2019-04-13T13:25:51.703Z,14.57
2019-04-13T13:30:56.525Z,14.80
2019-04-13T13:36:00.747Z,13.77
2019-04-13T13:41:08.458Z,14.30
2019-04-13T13:46:13.906Z,14.77
2019-04-13T13:51:18.976Z,15.20
2019-04-13T13:56:23.549Z,16.33
2019-04-13T14:01:55.145Z,14.10
2019-04-13T14:07:00.981Z,14.37
2019-04-13T14:12:11.606Z,14.93
2019-04-13T14:17:18.389Z,16.93
2019-04-13T14:22:23.783Z,14.97
2019-04-13T14:27:28.950Z,13.83
2019-04-13T14:32:35.393Z,14.37
2019-04-13T14:37:41.133Z,14.90
2019-04-13T14:42:46.324Z,14.87
2019-04-13T14:47:52.150Z,13.97
2019-04-13T14:52:57.394Z,14.77
2019-04-13T14:58:02.902Z,14.90
2019-04-13T15:03:08.048Z,14.63
2019-04-13T15:08:13.480Z,14.70
2019-04-13T15:13:19.085Z,14.20
2019-04-13T15:18:46.088Z,14.47
2019-04-13T15:23:51.871Z,15.90
2019-04-13T15:28:58.126Z,16.17
2019-04-13T15:34:05.174Z,16.57
2019-04-13T15:39:18.632Z,19.40
2019-04-13T15:44:26.983Z,17.30
2019-04-13T15:49:31.779Z,18.90
2019-04-13T15:54:37.265Z,16.97
2019-04-13T15:59:43.675Z,15.50
2019-04-13T16:04:49.289Z,16.20
2019-04-13T16:10:14.018Z,16.40
2019-04-13T16:15:22.880Z,16.57
2019-04-13T16:20:29.590Z,16.10
2019-04-13T16:25:34.508Z,14.50
2019-04-13T16:30:50.447Z,15.80
2019-04-13T16:36:01.929Z,16.40
2019-04-13T16:41:06.757Z,16.63
2019-04-13T16:46:36.432Z,16.03
2019-04-13T16:52:14.232Z,15.50
2019-04-13T16:57:40.319Z,16.33
2019-04-13T17:03:13.753Z,16.87
2019-04-13T17:08:20.132Z,15.63
2019-04-13T17:13:26.304Z,16.00
2019-04-13T17:18:48.839Z,15.47
2019-04-13T17:24:25.976Z,16.70
2019-04-13T17:29:48.797Z,17.17
2019-04-13T17:34:59.930Z,17.57
2019-04-13T17:40:09.234Z,17.90
2019-04-13T17:45:42.056Z,17.57
2019-04-13T17:51:06.584Z,18.17
2019-04-13T17:56:21.829Z,16.90
2019-04-13T18:01:46.063Z,18.60
2019-04-13T18:07:01.246Z,18.67
2019-04-13T18:12:42.549Z,17.80
2019-04-13T18:17:47.465Z,18.70
2019-04-13T18:22:53.930Z,18.80
2019-04-13T18:28:00.608Z,19.10
2019-04-13T18:33:07.314Z,19.57
2019-04-13T18:38:12.920Z,19.23
2019-04-13T18:43:23.107Z,17.83
2019-04-13T18:48:25.143Z,18.97
2019-04-13T18:53:31.918Z,19.07
2019-04-13T18:58:37.443Z,19.50
2019-04-13T19:03:42.658Z,19.40
2019-04-13T19:08:48.386Z,21.37
2019-04-13T19:13:53.486Z,23.60
2019-04-13T19:18:59.950Z,22.67
2019-04-13T19:24:05.851Z,19.40
2019-04-13T19:29:12.618Z,20.20
2019-04-13T19:34:18.645Z,19.67
2019-04-13T19:39:23.816Z,22.30
2019-04-13T19:44:29.186Z,21.63
2019-04-13T19:49:34.544Z,24.20
2019-04-13T19:54:39.748Z,22.47
2019-04-13T19:59:45.000Z,20.80
2019-04-13T20:04:50.805Z,22.40
2019-04-13T20:09:56.320Z,21.40
2019-04-13T20:15:01.755Z,20.23
2019-04-13T20:20:09.998Z,22.00
2019-04-13T20:25:15.800Z,21.80
2019-04-13T20:30:21.797Z,21.57
2019-04-13T20:35:28.117Z,23.23
2019-04-13T20:40:55.466Z,22.17
2019-04-13T20:46:01.668Z,21.77
2019-04-13T20:57:04.487Z,21.93
2019-04-13T21:02:11.202Z,23.40
2019-04-13T21:07:16.699Z,23.80
2019-04-13T21:12:22.932Z,24.03
2019-04-13T21:17:29.009Z,23.80
2019-04-13T21:22:35.675Z,24.83
2019-04-13T21:27:42.083Z,23.50
2019-04-13T21:32:48.635Z,23.50
2019-04-13T21:37:55.089Z,24.17
2019-04-13T21:43:00.583Z,24.03
2019-04-13T21:48:06.584Z,24.70
2019-04-13T21:53:18.511Z,24.70
2019-04-13T21:58:23.511Z,26.27
2019-04-13T22:03:29.377Z,23.17
2019-04-13T22:08:34.294Z,22.97
2019-04-13T22:13:40.319Z,23.00
2019-04-13T22:18:45.511Z,24.30
2019-04-13T22:23:52.108Z,23.37
2019-04-13T22:29:05.497Z,22.43
2019-04-13T22:34:16.314Z,22.10
2019-04-13T22:39:22.425Z,22.00
2019-04-13T22:44:39.527Z,22.60
2019-04-13T22:49:51.701Z,23.47
2019-04-13T22:55:18.558Z,24.47
2019-04-13T23:00:34.416Z,22.90
2019-04-13T23:05:39.947Z,24.80
2019-04-13T23:10:46.203Z,22.33
2019-04-13T23:15:51.703Z,24.27
2019-04-13T23:20:56.705Z,24.10
2019-04-13T23:26:01.553Z,23.00
2019-04-13T23:31:06.412Z,23.70
2019-04-13T23:36:11.382Z,23.00
2019-04-13T23:41:16.771Z,22.63
2019-04-13T23:46:22.128Z,23.27
2019-04-13T23:51:27.427Z,24.47
2019-04-13T23:56:56.441Z,24.43
